Time;durP1;ratioP1;P1;durP2;ratioP2;P2;SDS_P1;SDS_P2;PMS_P1;PMS_P2;Temp;Humidity;BMP_temperature;BMP_pressure;BME280_temperature;BME280_humidity;BME280_pressure;Samples;Min_cycle;Max_cycle;Signal;HPM_P1;HPM_P2
2023/05/07 00:00:40;;;;;;;58.13;35.30;;;15.10;99.90;;;;;;5012245;28;20462;-69
2023/05/07 00:03:06;;;;;;;55.85;36.55;;;15.10;99.90;;;;;;5012347;28;20026;-70
2023/05/07 00:05:32;;;;;;;56.33;37.20;;;15.10;99.90;;;;;;5029137;28;20105;-69
2023/05/07 00:07:57;;;;;;;57.00;37.33;;;15.10;99.90;;;;;;5031636;28;20025;-69
2023/05/07 00:10:23;;;;;;;56.85;36.63;;;15.00;99.90;;;;;;5031575;28;20037;-69
2023/05/07 00:12:49;;;;;;;64.05;37.05;;;15.00;99.90;;;;;;5019878;28;20026;-70
2023/05/07 00:15:14;;;;;;;57.65;35.55;;;14.90;99.90;;;;;;5015980;28;20029;-69
2023/05/07 00:17:40;;;;;;;62.25;36.97;;;14.90;99.90;;;;;;5031934;28;20037;-69
2023/05/07 00:20:07;;;;;;;60.90;38.17;;;14.90;99.90;;;;;;5030074;28;20045;-69
2023/05/07 00:22:33;;;;;;;55.83;36.40;;;14.90;99.90;;;;;;5031031;28;20026;-69
2023/05/07 00:24:59;;;;;;;57.22;35.83;;;14.90;99.90;;;;;;5031461;28;20067;-69
2023/05/07 00:27:25;;;;;;;57.80;37.13;;;15.00;99.90;;;;;;5031709;28;20130;-69
2023/05/07 00:29:50;;;;;;;59.08;37.20;;;15.00;99.90;;;;;;5038273;28;20124;-70
2023/05/07 00:32:16;;;;;;;59.17;37.28;;;15.10;99.90;;;;;;5051692;28;20037;-69
2023/05/07 00:34:42;;;;;;;63.95;39.40;;;15.10;99.90;;;;;;5053337;28;20033;-69
2023/05/07 00:37:08;;;;;;;61.38;37.17;;;15.10;99.90;;;;;;5048818;28;20032;-68
2023/05/07 00:39:35;;;;;;;57.05;37.10;;;15.10;99.90;;;;;;5035096;28;20033;-69
2023/05/07 00:42:02;;;;;;;60.70;38.00;;;15.10;99.90;;;;;;5034992;28;20034;-69
2023/05/07 00:44:29;;;;;;;58.50;35.55;;;15.10;99.90;;;;;;5034996;28;20350;-69
2023/05/07 00:46:57;;;;;;;66.45;38.75;;;15.10;99.90;;;;;;5034091;28;20025;-69
2023/05/07 00:49:31;;;;;;;62.72;40.13;;;15.10;99.90;;;;;;5035040;28;20025;-68
2023/05/07 00:51:57;;;;;;;70.53;40.25;;;15.10;99.90;;;;;;5034337;28;20033;-68
2023/05/07 00:54:23;;;;;;;73.43;43.72;;;15.10;99.90;;;;;;5035019;28;20026;-69
2023/05/07 00:56:48;;;;;;;76.65;44.58;;;15.10;99.90;;;;;;5034697;28;20029;-68
2023/05/07 00:59:15;;;;;;;76.97;45.28;;;15.10;99.90;;;;;;5034832;28;20033;-69
2023/05/07 01:01:40;;;;;;;83.78;48.55;;;15.10;99.90;;;;;;5034673;28;20452;-68
2023/05/07 01:04:06;;;;;;;82.05;46.50;;;15.10;99.90;;;;;;5025682;28;20021;-69
2023/05/07 01:06:32;;;;;;;85.70;47.13;;;15.10;99.90;;;;;;5034492;28;20029;-68
2023/05/07 01:08:59;;;;;;;87.05;48.63;;;15.10;99.90;;;;;;5034762;28;20044;-69
2023/05/07 01:11:25;;;;;;;86.10;46.00;;;15.10;99.90;;;;;;5034430;28;20026;-69
2023/05/07 01:13:51;;;;;;;82.28;48.58;;;15.20;99.90;;;;;;5034496;28;20045;-69
2023/05/07 01:16:17;;;;;;;80.07;48.70;;;15.20;99.90;;;;;;5034432;28;20170;-69
2023/05/07 01:18:43;;;;;;;76.15;44.63;;;15.20;99.90;;;;;;5034188;28;20566;-69
2023/05/07 01:21:11;;;;;;;80.03;46.75;;;15.20;99.90;;;;;;5018007;28;20034;-69
2023/05/07 01:23:37;;;;;;;80.68;45.42;;;15.30;99.90;;;;;;5013456;28;20026;-70
2023/05/07 01:26:03;;;;;;;77.65;45.10;;;15.30;99.90;;;;;;5013318;28;20552;-68
2023/05/07 01:28:28;;;;;;;78.22;46.42;;;15.30;99.90;;;;;;5013808;28;20121;-69
2023/05/07 01:30:58;;;;;;;75.22;44.88;;;15.30;99.90;;;;;;5049947;28;20055;-69
2023/05/07 01:33:25;;;;;;;75.40;45.28;;;15.30;99.90;;;;;;5053518;28;20044;-69
2023/05/07 01:35:53;;;;;;;72.88;45.25;;;15.30;99.90;;;;;;5053462;28;20032;-70
2023/05/07 01:38:21;;;;;;;78.35;43.97;;;15.30;99.90;;;;;;5020003;28;20052;-70
2023/05/07 01:40:47;;;;;;;78.75;45.53;;;15.30;99.90;;;;;;5014273;28;20168;-68
2023/05/07 01:43:12;;;;;;;74.90;43.78;;;15.30;99.90;;;;;;5014437;28;20104;-70
2023/05/07 01:45:40;;;;;;;73.20;44.47;;;15.30;99.90;;;;;;5013985;28;20104;-69
2023/05/07 01:48:06;;;;;;;77.55;44.17;;;15.30;99.90;;;;;;5014052;28;20037;-69
2023/05/07 01:50:33;;;;;;;74.78;43.95;;;15.30;99.90;;;;;;5014277;28;20034;-69
2023/05/07 01:52:59;;;;;;;75.18;46.13;;;15.30;99.90;;;;;;5014223;28;20084;-69
2023/05/07 01:55:25;;;;;;;76.40;45.53;;;15.30;99.90;;;;;;5014505;28;20022;-69
2023/05/07 01:57:50;;;;;;;82.30;45.78;;;15.40;99.90;;;;;;5013678;28;20044;-70
2023/05/07 02:00:17;;;;;;;77.22;47.00;;;15.40;99.90;;;;;;5014044;28;20057;-69
2023/05/07 02:02:42;;;;;;;73.20;44.33;;;15.30;99.90;;;;;;5013757;28;20112;-69
2023/05/07 02:05:08;;;;;;;72.60;43.13;;;15.30;99.90;;;;;;5027822;28;20458;-69
2023/05/07 02:07:34;;;;;;;79.57;45.25;;;15.30;99.90;;;;;;5033558;28;20136;-70
2023/05/07 02:10:00;;;;;;;75.75;45.85;;;15.30;99.90;;;;;;5032305;28;20442;-69
2023/05/07 02:12:25;;;;;;;75.40;44.10;;;15.40;99.90;;;;;;5033983;28;20112;-71
2023/05/07 02:14:51;;;;;;;79.90;46.75;;;15.30;99.90;;;;;;5033317;28;20057;-70
2023/05/07 02:17:16;;;;;;;74.70;45.30;;;15.40;99.90;;;;;;5033234;28;20029;-69
2023/05/07 02:19:42;;;;;;;70.97;44.28;;;15.30;99.90;;;;;;5032054;28;20124;-70
2023/05/07 02:22:09;;;;;;;72.43;42.15;;;15.40;99.90;;;;;;5032808;28;20067;-70
2023/05/07 02:24:34;;;;;;;69.00;41.80;;;15.40;99.90;;;;;;5033340;28;20072;-70
2023/05/07 02:27:00;;;;;;;65.90;42.35;;;15.30;99.90;;;;;;5033256;28;20076;-70
2023/05/07 02:29:26;;;;;;;67.70;42.00;;;15.30;99.90;;;;;;5028277;28;20048;-70
2023/05/07 02:31:52;;;;;;;68.05;42.15;;;15.30;99.90;;;;;;5052313;28;20025;-70
2023/05/07 02:34:18;;;;;;;66.47;40.65;;;15.30;99.90;;;;;;5034149;28;20021;-69
2023/05/07 02:36:45;;;;;;;62.42;40.88;;;15.30;99.90;;;;;;5032834;28;20033;-70
2023/05/07 02:39:12;;;;;;;66.80;42.20;;;15.30;99.90;;;;;;5032867;28;20061;-71
2023/05/07 02:41:38;;;;;;;65.97;40.33;;;15.30;99.90;;;;;;5033059;28;20133;-71
2023/05/07 02:44:04;;;;;;;60.38;37.80;;;15.30;99.90;;;;;;5032585;28;20493;-69
2023/05/07 02:46:29;;;;;;;59.13;38.13;;;15.30;99.90;;;;;;5031024;28;20029;-71
2023/05/07 02:48:55;;;;;;;57.83;38.72;;;15.30;99.90;;;;;;5032789;28;20170;-71
2023/05/07 02:51:22;;;;;;;62.03;40.42;;;15.30;99.90;;;;;;5032672;28;20397;-70
2023/05/07 02:53:47;;;;;;;62.05;39.13;;;15.30;99.90;;;;;;5032789;28;20030;-71
2023/05/07 02:56:13;;;;;;;59.80;38.08;;;15.30;99.90;;;;;;5031507;28;20025;-70
2023/05/07 02:58:39;;;;;;;60.00;37.28;;;15.30;99.90;;;;;;5032321;28;20069;-69
2023/05/07 03:01:05;;;;;;;56.28;37.08;;;15.30;99.90;;;;;;5032490;28;20347;-71
2023/05/07 03:03:31;;;;;;;53.88;35.90;;;15.30;99.90;;;;;;5014100;28;20082;-70
2023/05/07 03:05:56;;;;;;;53.20;35.90;;;15.30;99.90;;;;;;5032288;28;20389;-70
2023/05/07 03:08:22;;;;;;;51.50;33.58;;;15.30;99.90;;;;;;5032552;28;20037;-70
2023/05/07 03:10:48;;;;;;;50.15;33.63;;;15.40;99.90;;;;;;5032598;28;20035;-70
2023/05/07 03:13:14;;;;;;;47.33;32.67;;;15.40;99.90;;;;;;5032497;28;20083;-71
2023/05/07 03:15:40;;;;;;;49.20;31.13;;;15.40;99.90;;;;;;5032119;28;20102;-70
2023/05/07 03:18:05;;;;;;;44.40;30.38;;;15.40;99.90;;;;;;5032031;28;20458;-70
2023/05/07 03:20:31;;;;;;;43.55;29.10;;;15.40;99.90;;;;;;5014268;28;20041;-71
2023/05/07 03:22:57;;;;;;;42.75;27.98;;;15.40;99.90;;;;;;5012723;28;20032;-70
2023/05/07 03:25:22;;;;;;;38.28;25.38;;;15.40;99.90;;;;;;5013009;28;20087;-72
2023/05/07 03:27:48;;;;;;;39.22;25.25;;;15.40;99.90;;;;;;5012306;28;20053;-71
2023/05/07 03:30:13;;;;;;;36.45;24.65;;;15.40;99.90;;;;;;5037243;28;20478;-69
2023/05/07 03:32:39;;;;;;;38.38;24.15;;;15.40;99.90;;;;;;5052148;28;20097;-70
2023/05/07 03:35:05;;;;;;;36.85;25.08;;;15.40;99.90;;;;;;5052077;28;20376;-72
2023/05/07 03:37:31;;;;;;;37.88;25.30;;;15.40;99.90;;;;;;5016024;28;20022;-71
2023/05/07 03:39:57;;;;;;;36.78;24.50;;;15.40;99.90;;;;;;5012586;28;20042;-71
2023/05/07 03:42:22;;;;;;;35.92;23.85;;;15.40;99.90;;;;;;5012504;28;20030;-71
2023/05/07 03:44:48;;;;;;;36.05;24.05;;;15.40;99.90;;;;;;5012216;28;20058;-71
2023/05/07 03:47:13;;;;;;;34.83;22.77;;;15.40;99.90;;;;;;5012553;28;20052;-71
2023/05/07 03:49:39;;;;;;;33.17;21.75;;;15.40;99.90;;;;;;5012512;28;20480;-71
2023/05/07 03:52:05;;;;;;;34.83;22.58;;;15.40;99.90;;;;;;5012325;28;20029;-70
2023/05/07 03:54:31;;;;;;;34.38;21.73;;;15.40;99.90;;;;;;5023068;28;20046;-70
2023/05/07 03:56:57;;;;;;;32.25;21.75;;;15.40;99.90;;;;;;5047519;28;20033;-71
2023/05/07 03:59:30;;;;;;;32.75;21.10;;;15.40;99.90;;;;;;5048043;28;20037;-72
2023/05/07 04:01:56;;;;;;;29.10;20.98;;;15.40;99.90;;;;;;5029865;28;20025;-70
2023/05/07 04:04:21;;;;;;;28.95;19.77;;;15.40;99.90;;;;;;5032036;28;20121;-70
2023/05/07 04:06:47;;;;;;;30.42;20.38;;;15.40;99.90;;;;;;5032111;28;20104;-71
2023/05/07 04:09:13;;;;;;;29.70;19.23;;;15.40;99.90;;;;;;5035790;28;20037;-71
2023/05/07 04:11:40;;;;;;;31.95;20.52;;;15.40;99.90;;;;;;5035728;28;20052;-70
2023/05/07 04:14:05;;;;;;;27.70;18.10;;;15.30;99.90;;;;;;5036082;28;20033;-69
2023/05/07 04:16:31;;;;;;;27.58;18.38;;;15.30;99.90;;;;;;5034588;28;20034;-70
2023/05/07 04:18:57;;;;;;;25.95;17.23;;;15.30;99.90;;;;;;5035466;28;20034;-70
2023/05/07 04:21:22;;;;;;;27.92;17.77;;;15.30;99.90;;;;;;5035636;28;20473;-71
2023/05/07 04:23:49;;;;;;;27.25;16.70;;;15.30;99.90;;;;;;5035653;28;20378;-70
2023/05/07 04:26:15;;;;;;;27.35;17.52;;;15.30;99.90;;;;;;5035533;28;20035;-70
2023/05/07 04:28:41;;;;;;;26.10;17.65;;;15.30;99.90;;;;;;5035457;28;20046;-71
2023/05/07 04:31:07;;;;;;;26.25;16.90;;;15.30;99.90;;;;;;5035427;28;20025;-71
2023/05/07 04:33:33;;;;;;;24.88;16.98;;;15.30;99.90;;;;;;5035422;28;20041;-70
2023/05/07 04:36:02;;;;;;;24.35;16.73;;;15.30;99.90;;;;;;5034273;28;20032;-71
2023/05/07 04:38:31;;;;;;;28.88;16.90;;;15.30;99.90;;;;;;5035323;28;20367;-71
2023/05/07 04:41:02;;;;;;;25.20;16.00;;;15.30;99.90;;;;;;5035906;28;20033;-70
2023/05/07 04:43:27;;;;;;;25.75;15.00;;;15.30;99.90;;;;;;5041157;28;20037;-69
2023/05/07 04:45:53;;;;;;;23.17;15.27;;;15.40;99.90;;;;;;5045678;28;20043;-69
2023/05/07 04:48:20;;;;;;;22.15;14.63;;;15.40;99.90;;;;;;5043513;28;20124;-70
2023/05/07 04:50:49;;;;;;;23.95;14.55;;;15.40;99.90;;;;;;5051600;28;20029;-68
2023/05/07 04:53:15;;;;;;;22.40;14.05;;;15.50;99.90;;;;;;5022703;28;20029;-69
2023/05/07 04:55:40;;;;;;;23.60;13.95;;;15.50;99.90;;;;;;5047641;28;20551;-70
2023/05/07 04:58:07;;;;;;;25.40;14.52;;;15.60;99.90;;;;;;5045859;28;20025;-70
2023/05/07 05:00:33;;;;;;;22.20;12.98;;;15.60;99.90;;;;;;5039891;28;20028;-71
2023/05/07 05:02:58;;;;;;;21.88;13.60;;;15.70;99.90;;;;;;5051201;28;20028;-70
2023/05/07 05:05:24;;;;;;;21.80;12.25;;;15.70;99.90;;;;;;5039749;28;20052;-70
2023/05/07 05:07:51;;;;;;;17.85;12.02;;;15.80;99.90;;;;;;5046188;28;20061;-71
2023/05/07 05:10:17;;;;;;;20.92;12.38;;;15.90;99.90;;;;;;5046957;28;20119;-71
2023/05/07 05:12:42;;;;;;;21.90;12.40;;;15.90;99.90;;;;;;5038486;28;20438;-70
2023/05/07 05:15:08;;;;;;;18.90;11.48;;;16.00;99.90;;;;;;5050950;28;20029;-70
2023/05/07 05:17:35;;;;;;;20.92;12.82;;;16.10;99.90;;;;;;5040790;28;20364;-70
2023/05/07 05:20:01;;;;;;;20.17;11.85;;;16.20;99.90;;;;;;5043206;28;20034;-70
2023/05/07 05:22:29;;;;;;;21.60;11.85;;;16.30;99.90;;;;;;5047705;28;20526;-70
2023/05/07 05:24:55;;;;;;;19.27;11.48;;;16.40;99.90;;;;;;5037719;28;20021;-69
2023/05/07 05:27:20;;;;;;;19.05;11.20;;;16.40;99.90;;;;;;5049190;28;20735;-70
2023/05/07 05:29:46;;;;;;;19.48;11.07;;;16.50;99.90;;;;;;5034698;28;20452;-71
2023/05/07 05:32:11;;;;;;;21.55;11.43;;;16.60;99.90;;;;;;5045659;28;20477;-70
2023/05/07 05:34:37;;;;;;;15.88;10.02;;;16.70;99.90;;;;;;5038529;28;20532;-70
2023/05/07 05:37:02;;;;;;;19.42;11.55;;;16.70;99.90;;;;;;5041070;28;20477;-70
2023/05/07 05:39:28;;;;;;;16.40;10.15;;;16.70;99.90;;;;;;5038082;28;20469;-70
2023/05/07 05:41:54;;;;;;;22.73;12.07;;;16.70;99.90;;;;;;5042810;28;20021;-70
2023/05/07 05:44:19;;;;;;;17.25;10.90;;;16.80;99.90;;;;;;5053852;28;20024;-71
2023/05/07 05:46:45;;;;;;;18.50;11.75;;;16.80;99.90;;;;;;5037441;28;20026;-70
2023/05/07 05:49:10;;;;;;;20.10;11.45;;;16.70;99.90;;;;;;5050258;28;20034;-71
2023/05/07 05:51:36;;;;;;;19.13;11.73;;;16.70;99.90;;;;;;5040303;28;20154;-71
2023/05/07 05:54:02;;;;;;;19.70;11.32;;;16.70;99.90;;;;;;5042635;28;20032;-71
2023/05/07 05:56:27;;;;;;;18.63;12.40;;;16.70;99.90;;;;;;5047630;28;20112;-70
2023/05/07 05:58:53;;;;;;;18.33;11.50;;;16.80;99.90;;;;;;5036921;28;20034;-70
2023/05/07 06:01:18;;;;;;;21.98;11.25;;;16.90;99.90;;;;;;5044539;28;20060;-70
2023/05/07 06:03:44;;;;;;;18.33;9.90;;;17.10;99.90;;;;;;5045397;28;20036;-70
2023/05/07 06:06:10;;;;;;;20.23;12.45;;;17.20;99.90;;;;;;5044539;28;20029;-70
2023/05/07 06:08:35;;;;;;;18.42;9.70;;;17.20;99.90;;;;;;5038192;28;20029;-70
2023/05/07 06:11:02;;;;;;;18.13;11.10;;;17.40;99.90;;;;;;5049957;28;20112;-70
2023/05/07 06:13:28;;;;;;;15.50;9.93;;;17.40;99.90;;;;;;5039115;28;20040;-70
2023/05/07 06:15:53;;;;;;;20.58;11.65;;;17.50;99.90;;;;;;5042500;28;20025;-72
2023/05/07 06:18:19;;;;;;;17.73;10.73;;;17.50;99.90;;;;;;5045967;28;20043;-70
2023/05/07 06:20:44;;;;;;;17.95;11.88;;;17.60;99.90;;;;;;5036678;28;20036;-72
2023/05/07 06:23:10;;;;;;;19.92;11.80;;;17.60;99.90;;;;;;5049451;28;20024;-71
2023/05/07 06:25:35;;;;;;;20.30;11.63;;;17.60;99.90;;;;;;5039912;28;20029;-70
2023/05/07 06:28:01;;;;;;;23.52;13.77;;;17.70;99.90;;;;;;5042509;28;20055;-71
2023/05/07 06:30:26;;;;;;;23.70;14.25;;;17.60;99.90;;;;;;5033285;28;20025;-70
2023/05/07 06:32:52;;;;;;;21.35;14.45;;;17.70;99.90;;;;;;5048779;28;20094;-71
2023/05/07 06:35:18;;;;;;;23.80;14.20;;;17.70;99.90;;;;;;5037083;28;20025;-71
2023/05/07 06:37:44;;;;;;;23.83;14.65;;;17.70;99.90;;;;;;5041108;28;20057;-71
2023/05/07 06:40:10;;;;;;;24.45;15.98;;;17.90;99.90;;;;;;5041032;28;20561;-71
2023/05/07 06:42:36;;;;;;;23.52;14.40;;;18.00;99.90;;;;;;5047888;28;20033;-70
2023/05/07 06:45:02;;;;;;;22.55;13.70;;;18.20;99.90;;;;;;5036020;28;20477;-71
2023/05/07 06:47:28;;;;;;;20.95;14.18;;;18.40;99.90;;;;;;5046909;28;20083;-71
2023/05/07 06:49:54;;;;;;;19.23;13.52;;;18.50;99.90;;;;;;5041865;28;20477;-70
2023/05/07 06:52:19;;;;;;;21.88;13.63;;;18.40;99.90;;;;;;5039357;28;20148;-71
2023/05/07 06:54:45;;;;;;;21.63;14.32;;;18.40;99.90;;;;;;5048975;28;20063;-71
2023/05/07 06:57:10;;;;;;;20.92;13.68;;;18.60;99.90;;;;;;5035594;28;20397;-71
2023/05/07 06:59:36;;;;;;;18.65;10.80;;;19.50;99.90;;;;;;5045503;28;20044;-71
2023/05/07 07:02:01;;;;;;;16.88;11.18;;;20.80;99.90;;;;;;5042772;28;20025;-71
2023/05/07 07:04:28;;;;;;;15.27;10.50;;;21.50;99.90;;;;;;5038006;28;20029;-71
2023/05/07 07:06:54;;;;;;;17.35;11.07;;;21.50;99.90;;;;;;5048532;28;20044;-71
2023/05/07 07:09:19;;;;;;;18.27;11.10;;;21.30;99.90;;;;;;5036976;28;20025;-71
2023/05/07 07:11:45;;;;;;;17.42;11.30;;;21.20;99.90;;;;;;5044020;28;20025;-70
2023/05/07 07:14:11;;;;;;;20.23;12.35;;;21.10;99.90;;;;;;5032182;28;20030;-70
2023/05/07 07:16:36;;;;;;;21.08;12.43;;;20.90;99.90;;;;;;5047105;28;20469;-72
2023/05/07 07:19:02;;;;;;;20.25;11.98;;;20.80;99.90;;;;;;5035676;28;20045;-71
2023/05/07 07:21:28;;;;;;;17.52;10.95;;;21.30;99.90;;;;;;5046260;28;20544;-71
2023/05/07 07:23:53;;;;;;;19.20;11.20;;;22.20;99.90;;;;;;5041107;28;20040;-70
2023/05/07 07:26:19;;;;;;;15.77;10.80;;;22.70;99.90;;;;;;5039162;28;20026;-69
2023/05/07 07:28:45;;;;;;;15.82;10.35;;;22.60;99.90;;;;;;5046400;28;20049;-70
2023/05/07 07:31:12;;;;;;;16.30;10.02;;;22.40;99.90;;;;;;5019294;28;20045;-69
2023/05/07 07:33:37;;;;;;;17.65;11.30;;;22.30;99.90;;;;;;5044689;28;20034;-70
2023/05/07 07:36:05;;;;;;;19.13;11.82;;;22.20;99.90;;;;;;5036655;28;20014;-70
2023/05/07 07:38:30;;;;;;;17.17;11.05;;;22.30;99.90;;;;;;5046038;28;20037;-69
2023/05/07 07:40:56;;;;;;;19.05;10.38;;;22.80;99.90;;;;;;5033149;28;20087;-70
2023/05/07 07:43:21;;;;;;;15.65;10.02;;;23.00;99.90;;;;;;5040631;28;20442;-70
2023/05/07 07:45:47;;;;;;;16.55;9.55;;;23.20;99.90;;;;;;5049909;28;20513;-70
2023/05/07 07:48:12;;;;;;;15.95;9.82;;;23.20;99.90;;;;;;5050278;28;20029;-70
2023/05/07 07:50:38;;;;;;;17.92;10.13;;;23.20;99.90;;;;;;5042706;28;20051;-71
2023/05/07 07:53:04;;;;;;;16.45;10.20;;;23.10;99.90;;;;;;5055125;28;20048;-72
2023/05/07 07:55:30;;;;;;;15.95;10.10;;;23.00;99.90;;;;;;5044444;28;20064;-72
2023/05/07 07:57:56;;;;;;;17.13;10.45;;;23.00;99.90;;;;;;5047638;28;20026;-72
2023/05/07 08:00:22;;;;;;;15.80;9.18;;;22.90;99.90;;;;;;5046889;28;20052;-70
2023/05/07 08:02:47;;;;;;;14.82;9.10;;;23.30;99.90;;;;;;5054835;28;20460;-71
2023/05/07 08:05:13;;;;;;;13.55;8.55;;;23.70;99.90;;;;;;5041363;28;20021;-70
2023/05/07 08:07:39;;;;;;;16.00;8.68;;;24.20;99.90;;;;;;5050998;28;20049;-71
2023/05/07 08:10:04;;;;;;;14.57;8.77;;;25.10;99.90;;;;;;5049003;28;20104;-71
2023/05/07 08:12:30;;;;;;;15.07;8.57;;;25.70;99.90;;;;;;5043997;28;20358;-71
2023/05/07 08:14:55;;;;;;;14.02;8.18;;;26.70;99.90;;;;;;5055115;28;20496;-71
2023/05/07 08:17:22;;;;;;;17.92;10.18;;;27.60;98.70;;;;;;5041666;28;20044;-71
2023/05/07 08:19:48;;;;;;;12.50;8.23;;;28.60;98.50;;;;;;5049448;28;20117;-71
2023/05/07 08:22:13;;;;;;;12.95;7.78;;;29.60;97.10;;;;;;5037983;28;20094;-71
2023/05/07 08:24:39;;;;;;;14.93;8.10;;;30.30;95.00;;;;;;5038333;28;20037;-71
2023/05/07 08:27:05;;;;;;;14.60;8.77;;;31.00;94.40;;;;;;5038053;28;20136;-70
2023/05/07 08:29:31;;;;;;;10.93;7.88;;;31.90;93.00;;;;;;5044965;28;20112;-71
2023/05/07 08:31:56;;;;;;;13.18;7.80;;;32.70;92.10;;;;;;5058129;28;20376;-71
2023/05/07 08:34:22;;;;;;;11.15;8.02;;;33.10;91.00;;;;;;5057651;28;20040;-71
2023/05/07 08:36:48;;;;;;;11.52;7.93;;;33.40;90.60;;;;;;5046738;28;20029;-71
2023/05/07 08:39:17;;;;;;;14.32;8.77;;;33.30;88.80;;;;;;5038113;28;20041;-70
2023/05/07 08:41:48;;;;;;;11.70;8.15;;;33.00;89.50;;;;;;5039106;28;20029;-70
2023/05/07 08:44:14;;;;;;;12.23;7.90;;;32.70;88.70;;;;;;5049483;28;20037;-70
2023/05/07 08:46:41;;;;;;;12.15;8.63;;;31.90;89.20;;;;;;5037900;28;20084;-70
2023/05/07 08:49:08;;;;;;;14.73;9.02;;;30.90;90.30;;;;;;5038217;28;20112;-70
2023/05/07 08:51:33;;;;;;;15.50;9.65;;;30.30;91.50;;;;;;5039276;28;20104;-70
2023/05/07 08:54:01;;;;;;;15.80;10.13;;;29.90;91.40;;;;;;5047732;28;20117;-71
2023/05/07 08:56:26;;;;;;;13.80;8.02;;;29.50;92.30;;;;;;5035404;28;20033;-72
2023/05/07 08:58:56;;;;;;;12.98;7.55;;;29.30;92.30;;;;;;5049714;28;20374;-72
2023/05/07 09:01:21;;;;;;;15.55;8.95;;;29.00;92.20;;;;;;5042388;28;20021;-71
2023/05/07 09:03:47;;;;;;;14.32;8.75;;;29.10;92.50;;;;;;5034115;28;20396;-71
2023/05/07 09:06:13;;;;;;;13.25;7.55;;;29.70;92.20;;;;;;5034533;28;20021;-70
2023/05/07 09:08:38;;;;;;;11.63;6.50;;;30.20;91.80;;;;;;5037023;28;20041;-71
2023/05/07 09:11:04;;;;;;;12.13;7.25;;;30.60;90.60;;;;;;5054660;28;20537;-71
2023/05/07 09:13:30;;;;;;;9.95;6.35;;;30.70;90.60;;;;;;5054409;28;20033;-71
2023/05/07 09:15:56;;;;;;;14.85;7.35;;;30.80;90.10;;;;;;5054090;28;20059;-71
2023/05/07 09:18:24;;;;;;;12.77;7.85;;;31.80;89.70;;;;;;5054037;28;20033;-71
2023/05/07 09:20:50;;;;;;;10.68;7.50;;;32.90;87.90;;;;;;5014575;28;20026;-71
2023/05/07 09:23:23;;;;;;;12.57;7.53;;;33.20;87.00;;;;;;5014528;28;20132;-71
2023/05/07 09:25:49;;;;;;;11.77;6.78;;;33.10;86.00;;;;;;5014658;28;20105;-71
2023/05/07 09:28:14;;;;;;;13.60;8.65;;;32.90;85.90;;;;;;5014227;28;20137;-71
2023/05/07 09:30:40;;;;;;;15.52;9.63;;;32.60;86.30;;;;;;5046867;28;20053;-71
2023/05/07 09:33:05;;;;;;;12.25;7.50;;;32.50;87.20;;;;;;5054391;28;20078;-71
2023/05/07 09:35:31;;;;;;;9.65;6.38;;;33.00;86.40;;;;;;5052997;28;20410;-71
2023/05/07 09:38:00;;;;;;;13.48;7.75;;;33.90;85.00;;;;;;5033955;28;20567;-71
2023/05/07 09:40:28;;;;;;;8.35;5.93;;;34.90;83.20;;;;;;5033988;28;20077;-72
2023/05/07 09:42:54;;;;;;;9.77;5.68;;;35.80;80.50;;;;;;5033482;28;20025;-71
2023/05/07 09:45:25;;;;;;;9.32;5.57;;;36.10;78.90;;;;;;5032406;28;20485;-70
2023/05/07 09:47:55;;;;;;;11.25;6.00;;;35.70;79.50;;;;;;5034084;28;20036;-70
2023/05/07 09:50:26;;;;;;;9.32;5.60;;;35.30;79.20;;;;;;5033949;28;20037;-71
2023/05/07 09:52:52;;;;;;;10.93;6.57;;;34.80;79.90;;;;;;5033966;28;20029;-70
2023/05/07 09:55:18;;;;;;;10.18;5.25;;;34.50;79.70;;;;;;5033673;28;20037;-72
2023/05/07 09:57:45;;;;;;;11.70;5.80;;;34.00;80.00;;;;;;5033894;28;20021;-70
2023/05/07 10:00:15;;;;;;;10.70;5.35;;;33.40;80.90;;;;;;5032659;28;20164;-71
2023/05/07 10:02:46;;;;;;;12.52;6.88;;;33.00;81.90;;;;;;5032678;28;20024;-71
2023/05/07 10:05:13;;;;;;;11.57;5.43;;;32.60;82.30;;;;;;5033496;28;20108;-71
2023/05/07 10:07:40;;;;;;;9.20;5.57;;;32.20;83.00;;;;;;5044972;28;20033;-72
2023/05/07 10:10:07;;;;;;;10.23;5.35;;;31.60;83.30;;;;;;5052149;28;20120;-71
2023/05/07 10:12:38;;;;;;;8.80;4.40;;;31.50;84.60;;;;;;5052126;28;20381;-71
2023/05/07 10:15:08;;;;;;;9.55;4.47;;;31.70;84.30;;;;;;5052363;28;20032;-71
2023/05/07 10:17:36;;;;;;;9.55;4.90;;;31.90;82.80;;;;;;5021688;28;20034;-71
2023/05/07 10:20:03;;;;;;;7.30;4.30;;;32.00;83.30;;;;;;5033140;28;20441;-71
2023/05/07 10:22:39;;;;;;;10.63;5.18;;;32.10;82.90;;;;;;5031759;28;20033;-70
2023/05/07 10:25:13;;;;;;;10.48;5.05;;;32.30;82.20;;;;;;5033019;28;20026;-69
2023/05/07 10:27:40;;;;;;;9.93;5.53;;;32.20;83.00;;;;;;5025286;28;20041;-70
2023/05/07 10:30:49;;;;;;;9.75;5.60;;;32.00;82.40;;;;;;5043788;28;20049;-69
2023/05/07 10:33:21;;;;;;;10.35;5.22;;;31.50;83.20;;;;;;5030571;28;20140;-70
2023/05/07 10:35:48;;;;;;;9.90;5.22;;;31.20;84.70;;;;;;5031656;28;20049;-71
2023/05/07 10:38:14;;;;;;;9.57;5.15;;;31.10;84.10;;;;;;5040394;28;20090;-70
2023/05/07 10:40:40;;;;;;;8.38;5.10;;;31.00;84.80;;;;;;5039193;28;20044;-69
2023/05/07 10:43:06;;;;;;;10.75;5.53;;;31.10;84.70;;;;;;5032265;28;20029;-69
2023/05/07 10:45:32;;;;;;;9.88;4.95;;;31.40;84.70;;;;;;5037770;28;20030;-69
2023/05/07 10:48:12;;;;;;;8.35;5.10;;;31.90;84.00;;;;;;5036406;28;20466;-69
2023/05/07 10:50:42;;;;;;;11.10;4.60;;;32.30;83.70;;;;;;5035171;28;20060;-70
2023/05/07 10:53:17;;;;;;;8.93;5.00;;;32.80;82.30;;;;;;5047673;28;20068;-71
2023/05/07 10:55:51;;;;;;;8.50;4.85;;;33.50;81.60;;;;;;5044718;28;20032;-71
2023/05/07 10:58:27;;;;;;;8.18;4.75;;;33.70;82.10;;;;;;5040899;28;20069;-71
2023/05/07 11:01:01;;;;;;;7.50;4.20;;;33.80;80.70;;;;;;5045894;28;20471;-72
2023/05/07 11:03:28;;;;;;;10.93;4.20;;;33.50;80.50;;;;;;5041583;28;20024;-71
2023/05/07 11:06:16;;;;;;;10.27;5.15;;;32.90;80.20;;;;;;5037660;28;20408;-72
2023/05/07 11:08:52;;;;;;;9.25;5.22;;;32.10;81.70;;;;;;5033361;28;20068;-72
2023/05/07 11:11:19;;;;;;;12.38;5.38;;;31.20;83.10;;;;;;5041361;28;20025;-72
2023/05/07 11:13:49;;;;;;;8.00;4.30;;;30.60;84.00;;;;;;5044623;28;20029;-71
2023/05/07 11:16:27;;;;;;;9.73;5.60;;;30.10;85.10;;;;;;5038288;28;20108;-72
2023/05/07 11:18:56;;;;;;;11.60;5.18;;;29.80;85.50;;;;;;5050696;28;20072;-70
2023/05/07 11:21:41;;;;;;;9.18;5.82;;;29.60;86.50;;;;;;5041278;28;20107;-72
2023/05/07 11:24:08;;;;;;;11.68;6.03;;;29.60;87.00;;;;;;5026372;28;20017;-70
2023/05/07 11:26:49;;;;;;;12.02;6.05;;;29.60;87.00;;;;;;5031830;28;20459;-71
2023/05/07 11:29:22;;;;;;;13.25;6.78;;;29.70;87.70;;;;;;5031503;28;20111;-71
2023/05/07 11:31:55;;;;;;;10.73;5.82;;;29.90;88.00;;;;;;5031671;28;20029;-71
2023/05/07 11:34:26;;;;;;;13.80;6.05;;;30.30;87.20;;;;;;5029478;28;20112;-72
2023/05/07 11:36:52;;;;;;;10.73;6.15;;;30.60;86.50;;;;;;5027732;28;20030;-72
2023/05/07 11:39:32;;;;;;;10.48;5.53;;;30.30;85.90;;;;;;5028162;28;20041;-71
2023/05/07 11:42:00;;;;;;;10.80;5.53;;;30.00;86.30;;;;;;5027111;28;20497;-70
2023/05/07 11:44:40;;;;;;;12.45;6.03;;;29.90;86.50;;;;;;5030908;28;20373;-71
2023/05/07 11:47:06;;;;;;;12.75;5.90;;;29.80;87.10;;;;;;5030721;28;20146;-72
2023/05/07 11:49:32;;;;;;;11.13;5.68;;;29.80;87.10;;;;;;5016140;28;20517;-71
2023/05/07 11:51:57;;;;;;;11.18;6.13;;;30.00;87.20;;;;;;5028901;28;20082;-70
2023/05/07 11:54:23;;;;;;;12.00;5.35;;;29.80;87.00;;;;;;5010896;28;20462;-70
2023/05/07 11:56:49;;;;;;;13.95;5.72;;;29.80;88.00;;;;;;5011124;28;20026;-70
2023/05/07 11:59:17;;;;;;;9.98;5.03;;;30.20;87.70;;;;;;5018917;28;20172;-70
2023/05/07 12:01:46;;;;;;;11.68;4.75;;;30.40;86.90;;;;;;5031529;28;20030;-71
2023/05/07 12:04:12;;;;;;;9.05;4.68;;;30.50;86.30;;;;;;5013346;28;20030;-70
2023/05/07 12:06:38;;;;;;;18.73;3.40;;;30.80;86.50;;;;;;5011558;28;20037;-70
2023/05/07 12:09:07;;;;;;;7.38;2.75;;;31.50;83.60;;;;;;5025293;28;20040;-71
2023/05/07 12:11:32;;;;;;;8.77;2.70;;;32.50;82.60;;;;;;5030424;28;20025;-72
2023/05/07 12:13:58;;;;;;;8.57;3.00;;;33.30;79.50;;;;;;5015767;28;20052;-73
2023/05/07 12:16:25;;;;;;;9.93;4.05;;;33.50;80.00;;;;;;5011291;28;20403;-71
2023/05/07 12:18:52;;;;;;;8.90;4.30;;;34.10;80.50;;;;;;5022568;28;20037;-74
2023/05/07 12:21:18;;;;;;;12.50;5.60;;;34.80;80.50;;;;;;5029253;28;20466;-72
2023/05/07 12:23:44;;;;;;;11.73;5.88;;;35.30;79.90;;;;;;5026875;28;20017;-72
2023/05/07 12:26:10;;;;;;;10.48;5.57;;;35.10;79.60;;;;;;5027848;28;20029;-72
2023/05/07 12:28:38;;;;;;;12.82;6.28;;;34.50;79.80;;;;;;5027159;28;20057;-73